METAR Data
IDs: Format: Raw Decoded Include TAF

Data at: 2211 UTC 10 May 2021

KDEN 102153Z 13016KT 10SM BKN018 OVC028 07/03 A3003 RMK AO2 SLP150 T00670028
KDEN 102053Z 13019G25KT 10SM SCT018 OVC028 07/03 A3003 RMK AO2 SLP150 P0001 60003 T00670028 51004
KDEN 101953Z 14020G26KT 10SM BKN020 BKN025 OVC034 07/04 A3002 RMK AO2 PK WND 14026/1950 RAE53 SLP147 P0002 T00670039
KDEN 101853Z 13016KT 10SM -RA OVC027 07/02 A3003 RMK AO2 PK WND 13030/1809 RAB46 SLP148 P0000 T00670022
KDEN 101805Z 13018KT 10SM FEW015 BKN024 OVC100 08/03 A3001 RMK AO2 T00830028
KDEN 101753Z 14020KT 10SM FEW015 BKN030 OVC100 08/03 A3001 RMK AO2 PK WND 13026/1739 RAE00B27E33 SLP141 P0000 60000 T00830028 10083 20044 58010
KDEN 101705Z 15019KT 10SM FEW015 OVC030 07/03 A3003 RMK AO2 RAE00 P0000 T00720028
KDEN 101653Z 15019KT 10SM -RA SCT015 OVC028 07/03 A3004 RMK AO2 PK WND 15026/1607 RAB16 SLP151 P0000 T00670028
KDEN 101628Z 14020KT 9SM -RA OVC028 06/03 A3004 RMK AO2 PK WND 15026/1607 RAB16 P0000 T00560028
KDEN 101621Z 14019KT 9SM -RA SCT024 OVC030 06/02 A3004 RMK AO2 PK WND 15026/1607 RAB16 P0000 T00560022
KDEN 101553Z 15019G26KT 10SM FEW017 BKN023 OVC030 06/02 A3005 RMK AO2 PK WND 14026/1553 SLP155 T00560022
KDEN 101502Z 17014G25KT 10SM BKN023 OVC033 06/02 A3005 RMK AO2 T00610017
KDEN 101453Z 17019G26KT 10SM SCT021 OVC033 06/02 A3005 RMK AO2 PK WND 16026/1446 SLP154 T00610017 50002
KDEN 101429Z 15018KT 10SM FEW018 OVC030 06/02 A3005 RMK AO2 T00610022
KDEN 101353Z 16013KT 10SM FEW010 OVC026 06/02 A3005 RMK AO2 SLP155 T00610017
KDEN 101304Z 17012KT 10SM FEW005 BKN028 BKN055 05/01 A3005 RMK AO2 T00500011
KDEN 101253Z 16011KT 10SM FEW005 BKN030 BKN055 05/01 A3005 RMK AO2 SLP155 T00500011
KDEN 101153Z 18012KT 10SM FEW004 BKN050 BKN060 04/01 A3004 RMK AO2 SLP152 T00440011 10061 20033 58003
KDEN 101053Z 16007KT 10SM FEW020 SCT060 BKN200 04/01 A3004 RMK AO2 SLP155 T00390011
KDEN 100953Z 18010KT 10SM FEW030 BKN040 OVC050 05/02 A3005 RMK AO2 SLP157 T00500017
KDEN 100853Z 14008KT 10SM SCT037 OVC050 05/02 A3005 RMK AO2 SLP158 T00500022 58009
KDEN 100753Z 18006KT 10SM FEW020 FEW050 OVC065 06/01 A3007 RMK AO2 SLP165 VCSH T00610011
KDEN 100653Z 17011KT 10SM FEW040 SCT060 BKN070 06/01 A3007 RMK AO2 SLP170 T00610011 400830039
KDEN 100553Z 16007KT 10SM BKN085 06/02 A3008 RMK AO2 SLP169 T00560017 10083 20056 58001
KDEN 100453Z 15006KT 10SM FEW030 BKN070 OVC095 06/02 A3009 RMK AO2 SLP173 VCSH T00610017
KDEN 100353Z 13006KT 10SM FEW048 OVC065 07/01 A3009 RMK AO2 SLP171 T00720006
KDEN 100253Z 17007KT 10SM FEW060 OVC075 07/02 A3008 RMK AO2 SLP170 T00720017 53007
KDEN 100153Z 15013KT 10SM FEW045 OVC070 07/01 A3005 RMK AO2 SLP160 T00720011
KDEN 100053Z 16014KT 10SM FEW030 SCT046 OVC065 08/02 A3005 RMK AO2 SLP157 T00780017
KDEN 092353Z 12015KT 10SM BKN030 BKN039 OVC050 08/02 A3006 RMK AO2 SLP159 60000 T00830022 10083 20044 55000
KDEN 092253Z 12012KT 10SM BKN032 OVC055 08/02 A3004 RMK AO2 SLP157 T00780017
KDEN 092153Z 09011KT 10SM SCT030 BKN055 BKN100 08/02 A3004 RMK AO2 SLP156 T00780022
KDEN 092053Z 09011KT 10SM FEW025 BKN055 07/02 A3006 RMK AO2 SLP161 60000 T00720022 58010
KDEN 091953Z 08011KT 10SM SCT031 BKN049 BKN200 06/01 A3006 RMK AO2 RAE01B28E38 SLP164 P0000 T00610011
KDEN 091853Z 12006KT 10SM -RA BKN032 BKN050 BKN200 05/00 A3009 RMK AO2 PK WND 10027/1804 RAB06 SLP175 P0000 T00500000
KDEN 091753Z 11007KT 10SM FEW030 BKN060 BKN200 07/00 A3009 RMK AO2 SLP170 SHRA DSNT NW T00670000 10067 20044 58005
KDEN 091653Z VRB05KT 10SM SCT027 BKN060 BKN180 06/M01 A3011 RMK AO2 SLP175 SHRA DSNT SW T00561006
KDEN 091614Z 11005KT 10SM SCT027 BKN065 BKN180 06/00 A3010 RMK AO2 T00560000
KDEN 091553Z 14005KT 10SM BKN025 BKN060 BKN180 06/00 A3011 RMK AO2 SLP172 T00560000
KDEN 091531Z 13004KT 10SM BKN025 BKN050 BKN180 06/M01 A3011 RMK AO2 T00561006
KDEN 091453Z 20004KT 10SM SCT023 BKN050 BKN180 05/01 A3011 RMK AO2 SLP176 T00500006 51010
KDEN 091353Z 24004KT 10SM FEW015 BKN046 BKN180 05/01 A3011 RMK AO2 SLP173 T00500011
KDEN 091253Z VRB03KT 10SM FEW012 BKN046 05/01 A3010 RMK AO2 SLP163 T00500006
KDEN 091153Z 00000KT 10SM FEW010 BKN041 04/01 A3008 RMK AO2 SLP153 60008 70019 T00440011 10078 20039 51006
KDEN 091053Z 03004KT 10SM OVC039 04/02 A3007 RMK AO2 SLP155 T00390017